ΕΜΥ, Εθνική Μετεωρολογική Υπηρεσία - Δελτία Καιρού, Προγνώσεις

ΑΕΡΟΝΑΥΤΙΛΙΑ

GREEK AIRPORTS CODES

TAF LGKZ 160700Z 1609/1618 VRB03KT 9999 FEW030 BECMG 1609/1611 FEW025 SCT080 PROB40 TEMPO 1611/1616 4000 SHRA FEW020TCU SCT025 BKN070=

EUROPEAN AIRPORTS CODES

LFPO 161800Z 24006KT CAVOK 23/11 Q1019 NOSIG=